Time;durP1;ratioP1;P1;durP2;ratioP2;P2;SDS_P1;SDS_P2;PMS_P1;PMS_P2;Temp;Humidity;BMP_temperature;BMP_pressure;BME280_temperature;BME280_humidity;BME280_pressure;Samples;Min_cycle;Max_cycle;Signal;HPM_P1;HPM_P2
2021/04/03 00:00:38;;;;;;;16.33;8.57;;;11.30;69.30;;;;;;11930089;28;20049;-73
2021/04/03 00:06:25;;;;;;;21.23;9.88;;;11.40;68.50;;;;;;11926003;28;20054;-73
2021/04/03 00:12:12;;;;;;;16.70;10.27;;;11.20;68.70;;;;;;11926859;28;20053;-73
2021/04/03 00:17:58;;;;;;;23.75;10.60;;;11.30;68.10;;;;;;11924403;28;20104;-73
2021/04/03 00:23:45;;;;;;;21.08;10.40;;;11.40;67.50;;;;;;11925692;28;20497;-74
2021/04/03 00:29:32;;;;;;;21.25;9.75;;;11.30;67.20;;;;;;11923660;28;20559;-73
2021/04/03 00:35:20;;;;;;;19.20;9.80;;;11.40;67.40;;;;;;11923394;28;20068;-73
2021/04/03 00:41:07;;;;;;;23.42;9.63;;;11.50;67.20;;;;;;11926794;28;20515;-73
2021/04/03 00:46:54;;;;;;;26.98;11.35;;;11.40;67.00;;;;;;11929947;28;20053;-73
2021/04/03 00:52:41;;;;;;;19.48;9.75;;;11.40;67.00;;;;;;11924323;28;20061;-73
2021/04/03 00:58:28;;;;;;;29.88;10.45;;;11.20;67.00;;;;;;11926587;28;20060;-73
2021/04/03 01:04:15;;;;;;;17.38;10.27;;;11.10;67.70;;;;;;11917285;28;20054;-74
2021/04/03 01:10:01;;;;;;;17.92;8.95;;;11.10;67.90;;;;;;11923005;28;20046;-74
2021/04/03 01:15:58;;;;;;;18.33;8.10;;;11.00;67.50;;;;;;11921974;28;20057;-74
2021/04/03 01:22:07;;;;;;;12.38;7.18;;;10.90;67.70;;;;;;11919138;28;20049;-74
2021/04/03 01:28:13;;;;;;;17.33;7.25;;;10.80;67.90;;;;;;11917087;28;20066;-74
2021/04/03 01:34:02;;;;;;;16.85;5.95;;;10.80;68.10;;;;;;11921809;28;20058;-74
2021/04/03 01:39:51;;;;;;;14.18;6.40;;;11.00;67.80;;;;;;11930625;28;20554;-75
2021/04/03 01:45:40;;;;;;;15.77;6.57;;;11.00;67.90;;;;;;11920610;28;20058;-74
2021/04/03 01:51:29;;;;;;;15.20;6.50;;;10.90;68.20;;;;;;11922332;28;20038;-73
2021/04/03 01:57:16;;;;;;;15.00;6.70;;;11.10;67.90;;;;;;11921345;28;20046;-73
2021/04/03 02:03:05;;;;;;;11.90;6.20;;;11.20;67.20;;;;;;11920182;28;20100;-73
2021/04/03 02:08:53;;;;;;;12.27;5.95;;;11.30;67.70;;;;;;11921519;28;20045;-73
2021/04/03 02:14:40;;;;;;;11.45;6.30;;;11.40;67.20;;;;;;11925344;28;20060;-73
2021/04/03 02:20:26;;;;;;;15.93;6.43;;;11.30;67.30;;;;;;11925056;28;20053;-73
2021/04/03 02:26:13;;;;;;;12.85;5.78;;;11.30;67.90;;;;;;11914993;28;20124;-73
2021/04/03 02:32:00;;;;;;;15.68;5.95;;;11.40;67.50;;;;;;11920394;28;20061;-73
2021/04/03 02:37:47;;;;;;;13.27;6.00;;;11.50;67.10;;;;;;11918966;28;20103;-72
2021/04/03 02:43:44;;;;;;;13.23;5.93;;;11.40;67.30;;;;;;11920862;28;20049;-73
2021/04/03 02:49:35;;;;;;;12.93;5.40;;;11.30;67.80;;;;;;11919353;28;20112;-73
2021/04/03 02:55:27;;;;;;;11.68;4.85;;;11.50;67.20;;;;;;11918506;28;20052;-73
2021/04/03 03:01:16;;;;;;;14.68;5.45;;;11.30;67.70;;;;;;11923697;28;20050;-74
2021/04/03 03:07:03;;;;;;;10.52;5.25;;;11.20;68.10;;;;;;11927692;28;20054;-73
2021/04/03 03:12:51;;;;;;;11.23;5.28;;;11.30;67.70;;;;;;11928581;28;20111;-72
2021/04/03 03:18:40;;;;;;;11.35;5.30;;;11.10;67.70;;;;;;11931276;28;20425;-72
2021/04/03 03:24:27;;;;;;;15.98;5.57;;;11.00;67.90;;;;;;11930074;28;20053;-73
2021/04/03 03:30:16;;;;;;;16.42;5.20;;;10.90;68.90;;;;;;11926846;28;20050;-73
2021/04/03 03:36:05;;;;;;;15.32;5.85;;;11.00;68.10;;;;;;11928749;28;20061;-73
2021/04/03 03:41:56;;;;;;;18.67;5.65;;;11.10;68.70;;;;;;11928119;28;20701;-73
2021/04/03 03:47:43;;;;;;;16.65;5.60;;;11.30;68.10;;;;;;11927524;28;20042;-74
2021/04/03 03:53:30;;;;;;;14.02;5.78;;;11.30;67.50;;;;;;11924582;28;20053;-73
2021/04/03 03:59:16;;;;;;;15.30;5.90;;;11.30;68.10;;;;;;11922165;28;20570;-73
2021/04/03 04:05:03;;;;;;;14.02;6.40;;;11.10;68.10;;;;;;11919081;28;20103;-73
2021/04/03 04:10:51;;;;;;;14.23;5.95;;;10.90;68.40;;;;;;11923605;28;20081;-73
2021/04/03 04:16:37;;;;;;;10.07;5.72;;;10.70;68.70;;;;;;11928446;28;20661;-73
2021/04/03 04:22:24;;;;;;;18.83;5.45;;;11.10;67.90;;;;;;11926899;28;20056;-73
2021/04/03 04:28:11;;;;;;;17.35;5.70;;;11.20;67.10;;;;;;11924207;28;20165;-73
2021/04/03 04:33:57;;;;;;;12.32;5.50;;;11.20;65.70;;;;;;11909629;28;20058;-73
2021/04/03 04:39:44;;;;;;;18.98;6.10;;;11.10;66.90;;;;;;11923815;28;20050;-74
2021/04/03 04:45:31;;;;;;;13.30;5.70;;;11.20;65.80;;;;;;11924318;28;20065;-74
2021/04/03 04:51:18;;;;;;;12.48;6.13;;;11.20;66.00;;;;;;11932043;28;20052;-74
2021/04/03 04:57:06;;;;;;;18.63;6.80;;;11.20;66.40;;;;;;11925198;28;20139;-74
2021/04/03 05:02:54;;;;;;;21.58;7.25;;;11.30;66.70;;;;;;11919446;28;20053;-73
2021/04/03 07:38:51;;;;;;;24.52;10.38;;;9.60;73.20;;;;;;12204335;27;20333;-73
2021/04/03 07:44:38;;;;;;;27.52;9.07;;;10.00;72.60;;;;;;12204168;27;20395;-73
2021/04/03 07:50:50;;;;;;;21.50;8.35;;;10.60;70.40;;;;;;12203652;27;20047;-73
2021/04/03 07:56:53;;;;;;;29.60;8.00;;;11.00;69.00;;;;;;12210640;27;20077;-72
2021/04/03 08:02:39;;;;;;;30.65;8.65;;;11.00;68.60;;;;;;12221248;27;20445;-72
2021/04/03 08:08:27;;;;;;;24.02;8.60;;;11.10;68.50;;;;;;12215007;27;20047;-73
2021/04/03 08:14:15;;;;;;;21.10;7.93;;;11.20;68.60;;;;;;12215914;27;20035;-74
2021/04/03 08:20:02;;;;;;;30.35;9.13;;;11.20;69.00;;;;;;12217842;27;20091;-74
2021/04/03 08:25:54;;;;;;;29.10;9.15;;;11.30;69.20;;;;;;12216006;27;20057;-72
2021/04/03 08:31:49;;;;;;;23.63;8.30;;;11.10;68.80;;;;;;12208594;27;20482;-73
2021/04/03 08:37:35;;;;;;;30.63;8.50;;;11.20;69.90;;;;;;12203411;27;20130;-72
2021/04/03 08:43:25;;;;;;;29.13;9.73;;;11.50;69.80;;;;;;12199966;27;20152;-72
2021/04/03 08:49:20;;;;;;;29.08;10.95;;;11.40;68.10;;;;;;12176088;27;20047;-72
2021/04/03 08:55:08;;;;;;;33.88;11.15;;;11.50;67.90;;;;;;12163015;27;20043;-72
2021/04/03 09:00:54;;;;;;;29.75;10.50;;;11.40;68.50;;;;;;12168571;27;20047;-73
2021/04/03 09:06:47;;;;;;;36.72;11.30;;;11.50;68.70;;;;;;12159638;27;20434;-71
2021/04/03 09:12:33;;;;;;;24.50;10.52;;;11.10;68.50;;;;;;12166427;27;20043;-72
2021/04/03 09:18:20;;;;;;;23.45;10.23;;;11.30;68.90;;;;;;12166879;27;20108;-73
2021/04/03 09:24:09;;;;;;;25.75;10.68;;;11.70;68.20;;;;;;12163654;27;20040;-73
2021/04/03 09:30:04;;;;;;;35.40;10.82;;;11.90;67.10;;;;;;12166348;27;20051;-73
2021/04/03 09:35:51;;;;;;;31.10;11.02;;;12.00;65.40;;;;;;12169756;27;20043;-73
2021/04/03 09:41:45;;;;;;;28.00;10.65;;;12.00;65.60;;;;;;12160784;27;20047;-72
2021/04/03 09:47:31;;;;;;;26.67;10.95;;;12.10;63.90;;;;;;12166971;27;20237;-72
2021/04/03 09:53:18;;;;;;;24.25;10.30;;;12.10;65.00;;;;;;12163406;27;20131;-72
2021/04/03 09:59:05;;;;;;;24.88;9.95;;;12.40;64.50;;;;;;12158998;27;20046;-72
2021/04/03 10:04:51;;;;;;;31.48;12.82;;;12.60;63.60;;;;;;12162191;27;20054;-72
2021/04/03 10:10:39;;;;;;;31.45;10.32;;;12.80;61.80;;;;;;12165155;27;20052;-72
2021/04/03 10:16:26;;;;;;;26.77;8.60;;;12.80;60.80;;;;;;12164967;27;20246;-74
2021/04/03 10:22:13;;;;;;;23.90;8.30;;;12.60;60.00;;;;;;12167818;27;20058;-74
2021/04/03 10:27:59;;;;;;;24.00;8.43;;;12.40;59.30;;;;;;12162436;27;21015;-73
2021/04/03 10:33:46;;;;;;;21.77;7.75;;;12.70;60.80;;;;;;12163163;27;20047;-73
2021/04/03 10:39:33;;;;;;;25.67;7.40;;;12.40;59.10;;;;;;12157356;27;20137;-73
2021/04/03 10:45:19;;;;;;;24.13;7.55;;;12.60;60.00;;;;;;12162275;27;20048;-73
2021/04/03 10:51:07;;;;;;;20.13;7.45;;;12.30;59.80;;;;;;12164798;27;20047;-71
2021/04/03 10:56:53;;;;;;;25.27;7.85;;;12.30;60.60;;;;;;12158375;27;20040;-73
2021/04/03 11:02:40;;;;;;;20.00;7.40;;;12.50;60.50;;;;;;12165543;27;20051;-72
2021/04/03 11:08:29;;;;;;;27.80;7.93;;;12.60;58.80;;;;;;12163212;27;20131;-73
2021/04/03 11:14:15;;;;;;;22.77;7.53;;;12.70;59.40;;;;;;12164795;27;20506;-73
2021/04/03 11:20:04;;;;;;;33.65;7.70;;;12.80;59.70;;;;;;12162949;27;20096;-73
2021/04/03 11:25:51;;;;;;;22.95;8.02;;;13.00;59.00;;;;;;12164792;27;20051;-74
2021/04/03 11:31:37;;;;;;;42.10;8.52;;;12.60;59.70;;;;;;12159413;27;20051;-73
2021/04/03 11:37:24;;;;;;;26.35;8.45;;;12.60;59.80;;;;;;12153149;27;20059;-73
2021/04/03 11:43:13;;;;;;;27.80;10.20;;;13.00;59.20;;;;;;12155604;27;20044;-73
2021/04/03 11:49:00;;;;;;;20.45;8.25;;;13.20;58.90;;;;;;12151711;27;20386;-74
2021/04/03 11:54:46;;;;;;;23.08;7.75;;;13.70;58.60;;;;;;12161606;27;20669;-74
2021/04/03 12:00:34;;;;;;;20.90;8.15;;;13.80;57.40;;;;;;12162019;27;20447;-74
2021/04/03 12:06:20;;;;;;;22.85;9.10;;;13.70;57.80;;;;;;12158438;27;20101;-74
2021/04/03 12:12:08;;;;;;;25.33;8.23;;;13.40;57.90;;;;;;12163487;27;20546;-73
2021/04/03 12:17:57;;;;;;;20.15;8.77;;;13.60;58.30;;;;;;12153860;27;20052;-73
2021/04/03 12:23:45;;;;;;;25.77;8.57;;;13.90;58.00;;;;;;12170766;27;20051;-73
2021/04/03 12:29:31;;;;;;;27.48;8.80;;;14.10;57.60;;;;;;12169248;27;20486;-73
2021/04/03 12:35:19;;;;;;;23.33;8.60;;;13.80;57.60;;;;;;12162768;27;21090;-73
2021/04/03 12:41:05;;;;;;;25.25;8.82;;;14.40;57.20;;;;;;12172041;27;20044;-74
2021/04/03 12:46:51;;;;;;;31.27;9.25;;;13.90;57.50;;;;;;12165414;27;21084;-73
2021/04/03 12:52:39;;;;;;;25.63;8.73;;;13.80;58.10;;;;;;12171024;27;20577;-74
2021/04/03 12:58:26;;;;;;;24.75;8.30;;;14.10;57.60;;;;;;12166153;27;20956;-72
2021/04/03 13:04:12;;;;;;;28.90;9.80;;;13.70;57.70;;;;;;12170432;27;20062;-74
2021/04/03 13:10:00;;;;;;;30.27;9.00;;;13.70;58.10;;;;;;12163731;27;20073;-74
2021/04/03 13:15:46;;;;;;;29.63;9.73;;;13.70;58.00;;;;;;12169836;27;20044;-74
2021/04/03 13:21:32;;;;;;;31.90;9.80;;;14.10;57.90;;;;;;12164668;27;20052;-74
2021/04/03 13:27:20;;;;;;;29.23;10.65;;;14.10;57.30;;;;;;12168458;27;21820;-74
2021/04/03 13:33:06;;;;;;;28.15;10.07;;;14.30;57.60;;;;;;12164647;27;20047;-73
2021/04/03 13:38:53;;;;;;;24.13;10.40;;;14.70;56.70;;;;;;12161001;27;20049;-73
2021/04/03 13:44:40;;;;;;;33.28;10.52;;;14.60;56.10;;;;;;12167673;27;20050;-73
2021/04/03 13:50:26;;;;;;;23.17;9.38;;;14.90;55.50;;;;;;12162987;27;20043;-72
2021/04/03 13:56:13;;;;;;;23.00;9.07;;;15.20;55.80;;;;;;12162623;27;20054;-73
2021/04/03 14:02:00;;;;;;;25.55;9.90;;;15.30;55.60;;;;;;12156212;27;20046;-73
2021/04/03 14:07:47;;;;;;;23.52;8.98;;;15.20;55.50;;;;;;12159988;27;20174;-73
2021/04/03 14:13:34;;;;;;;27.25;8.43;;;15.40;55.40;;;;;;12158054;27;20059;-73
2021/04/03 14:19:21;;;;;;;31.88;9.27;;;15.50;54.10;;;;;;12160003;27;20051;-74
2021/04/03 14:25:08;;;;;;;23.25;8.10;;;15.00;53.80;;;;;;12166014;27;20039;-73
2021/04/03 14:30:54;;;;;;;22.05;7.65;;;14.90;54.30;;;;;;12154305;27;20444;-74
2021/04/03 14:36:42;;;;;;;26.02;7.03;;;15.30;53.90;;;;;;12156514;27;20439;-74
2021/04/03 14:42:28;;;;;;;27.23;7.00;;;15.30;55.30;;;;;;12159282;27;20457;-73
2021/04/03 14:48:14;;;;;;;24.23;7.13;;;15.80;54.40;;;;;;12163441;27;20414;-73
2021/04/03 14:54:02;;;;;;;20.40;6.70;;;16.30;53.60;;;;;;12157932;27;20100;-72
2021/04/03 14:59:48;;;;;;;17.38;6.53;;;16.60;52.30;;;;;;12162587;27;20047;-74
2021/04/03 15:05:34;;;;;;;16.98;6.88;;;16.70;52.20;;;;;;12161792;27;20051;-73
2021/04/03 15:11:22;;;;;;;19.85;7.15;;;16.60;52.20;;;;;;12170271;27;20058;-74
2021/04/03 15:17:09;;;;;;;18.88;6.88;;;16.50;51.40;;;;;;12165199;27;20050;-74
2021/04/03 15:22:55;;;;;;;20.00;7.55;;;16.70;52.30;;;;;;12162374;27;20059;-73
2021/04/03 15:28:43;;;;;;;19.67;8.20;;;16.70;52.20;;;;;;12162049;27;20056;-74
2021/04/03 15:34:30;;;;;;;24.23;7.30;;;16.30;53.40;;;;;;12168737;27;20130;-74
2021/04/03 15:40:16;;;;;;;19.63;8.18;;;16.10;53.00;;;;;;12164602;27;20116;-73
2021/04/03 15:46:04;;;;;;;25.17;7.82;;;16.20;52.70;;;;;;12157634;27;20039;-73
2021/04/03 15:51:50;;;;;;;18.98;7.07;;;16.20;53.00;;;;;;12157023;27;20563;-73
2021/04/03 15:57:36;;;;;;;24.50;7.28;;;16.00;53.30;;;;;;12162729;27;20084;-73
2021/04/03 16:03:24;;;;;;;24.88;7.82;;;15.90;53.30;;;;;;12169667;27;20090;-73
2021/04/03 16:09:10;;;;;;;20.48;6.97;;;15.60;54.50;;;;;;12168167;27;20137;-72
2021/04/03 16:14:57;;;;;;;22.45;6.90;;;15.80;54.20;;;;;;12171142;27;20047;-72
2021/04/03 16:20:44;;;;;;;19.52;6.75;;;16.00;53.70;;;;;;12170195;27;20083;-74
2021/04/03 16:26:32;;;;;;;18.10;7.10;;;16.20;53.50;;;;;;12161489;27;20043;-74
2021/04/03 16:32:18;;;;;;;24.80;6.97;;;16.20;53.30;;;;;;12164509;27;20106;-73
2021/04/03 16:38:07;;;;;;;21.45;6.97;;;16.40;53.20;;;;;;12168678;27;20056;-73
2021/04/03 16:43:53;;;;;;;37.95;9.02;;;17.50;51.50;;;;;;12164011;27;20054;-72
2021/04/03 16:49:39;;;;;;;18.90;6.90;;;18.90;48.20;;;;;;12165828;27;20049;-72
2021/04/03 16:55:27;;;;;;;27.60;7.53;;;20.30;46.70;;;;;;12163087;27;20496;-72
2021/04/03 17:01:13;;;;;;;27.92;8.20;;;21.00;43.60;;;;;;12161525;27;20056;-72
2021/04/03 17:06:59;;;;;;;19.92;8.05;;;21.20;43.70;;;;;;12167618;27;20649;-72
2021/04/03 17:12:47;;;;;;;27.83;8.00;;;21.10;43.80;;;;;;12164510;27;20540;-73
2021/04/03 17:18:33;;;;;;;24.17;7.00;;;20.90;44.70;;;;;;12166648;27;20051;-73
2021/04/03 17:24:20;;;;;;;21.27;6.50;;;21.60;43.50;;;;;;12161753;27;20051;-73
2021/04/03 17:30:12;;;;;;;24.45;7.10;;;21.60;42.40;;;;;;12166320;27;20067;-72
2021/04/03 17:36:01;;;;;;;20.88;6.35;;;19.40;45.60;;;;;;12163227;27;20081;-72
2021/04/03 17:41:47;;;;;;;25.23;6.63;;;17.90;49.20;;;;;;12160170;27;20548;-73
2021/04/03 17:47:35;;;;;;;28.05;6.47;;;16.80;51.30;;;;;;12163025;27;20081;-72
2021/04/03 17:53:21;;;;;;;21.60;6.45;;;16.10;53.10;;;;;;12156258;27;20660;-72
2021/04/03 17:59:08;;;;;;;23.75;6.90;;;15.50;54.30;;;;;;12167624;27;20054;-73
2021/04/03 18:04:55;;;;;;;22.95;6.20;;;14.90;55.60;;;;;;12166731;27;20051;-72
2021/04/03 18:10:42;;;;;;;21.33;6.40;;;14.60;56.60;;;;;;12170045;27;20046;-73
2021/04/03 18:16:28;;;;;;;26.85;7.22;;;14.20;57.50;;;;;;12166491;27;20112;-72
2021/04/03 18:22:16;;;;;;;22.02;7.32;;;14.10;58.10;;;;;;12163909;27;20425;-73
2021/04/03 18:28:03;;;;;;;19.05;6.30;;;14.00;58.60;;;;;;12157199;27;20048;-73
2021/04/03 18:33:49;;;;;;;28.73;7.47;;;13.80;58.90;;;;;;12163109;27;20498;-73
2021/04/03 18:39:37;;;;;;;22.98;7.38;;;13.60;59.40;;;;;;12162336;27;20534;-73
2021/04/03 18:45:24;;;;;;;30.20;8.65;;;13.50;59.50;;;;;;12158974;27;20727;-73
2021/04/03 18:51:11;;;;;;;24.95;7.60;;;13.50;60.20;;;;;;12164342;27;20058;-73
2021/04/03 18:57:00;;;;;;;23.73;7.50;;;13.50;60.00;;;;;;12160374;27;20065;-73
2021/04/03 19:02:46;;;;;;;31.77;10.90;;;13.40;60.70;;;;;;12163842;27;20080;-72
2021/04/03 19:08:33;;;;;;;21.13;7.22;;;13.40;61.00;;;;;;12158310;27;20073;-73
2021/04/03 19:14:20;;;;;;;22.52;8.45;;;13.40;61.00;;;;;;12167840;27;21418;-73
2021/04/03 19:20:09;;;;;;;23.70;7.22;;;13.40;61.10;;;;;;12165237;27;20733;-71
2021/04/03 19:25:55;;;;;;;31.13;9.43;;;13.30;61.40;;;;;;12161148;27;20048;-73
2021/04/03 19:31:43;;;;;;;32.03;9.77;;;13.20;62.20;;;;;;12161544;27;20490;-72
2021/04/03 19:37:29;;;;;;;25.45;8.38;;;13.20;62.10;;;;;;12152076;27;20055;-72
2021/04/03 19:43:15;;;;;;;24.08;7.38;;;13.20;62.00;;;;;;12160063;27;20095;-72
2021/04/03 19:49:04;;;;;;;23.92;7.95;;;13.20;62.10;;;;;;12171494;27;20847;-72
2021/04/03 19:54:50;;;;;;;31.58;9.05;;;13.10;62.50;;;;;;12158617;27;20054;-73
2021/04/03 20:00:37;;;;;;;23.00;8.20;;;13.20;62.70;;;;;;12164342;27;20445;-71
2021/04/03 20:06:24;;;;;;;31.05;9.20;;;13.10;62.70;;;;;;12160948;27;20043;-73
2021/04/03 20:12:12;;;;;;;30.48;8.68;;;12.90;63.40;;;;;;12154581;27;20449;-72
2021/04/03 20:17:58;;;;;;;34.55;9.55;;;12.90;63.30;;;;;;12151700;27;20051;-72
2021/04/03 20:23:46;;;;;;;30.70;9.57;;;12.90;63.60;;;;;;12164741;27;20059;-72
2021/04/03 20:29:32;;;;;;;27.50;9.38;;;12.90;63.70;;;;;;12162230;27;20040;-71
2021/04/03 20:35:19;;;;;;;37.28;10.13;;;12.80;63.90;;;;;;12162158;27;20051;-72
2021/04/03 20:41:07;;;;;;;32.00;10.85;;;12.70;64.80;;;;;;12158885;27;20038;-72
2021/04/03 20:46:56;;;;;;;38.20;11.15;;;12.70;65.20;;;;;;12172452;27;20176;-72
2021/04/03 20:52:42;;;;;;;32.10;11.70;;;12.60;65.80;;;;;;12164474;27;20043;-72
2021/04/03 20:58:29;;;;;;;39.30;12.50;;;12.40;67.00;;;;;;12166539;27;20040;-73
2021/04/03 21:04:16;;;;;;;29.83;11.88;;;12.30;67.70;;;;;;12165680;27;20047;-72
2021/04/03 21:10:03;;;;;;;49.30;13.85;;;12.10;68.00;;;;;;12162867;27;20039;-72
2021/04/03 21:15:51;;;;;;;40.83;13.48;;;12.10;68.90;;;;;;12168913;27;20047;-73
2021/04/03 21:21:37;;;;;;;32.53;11.93;;;12.00;69.90;;;;;;12162160;27;20068;-73
2021/04/03 21:27:23;;;;;;;36.08;11.05;;;12.10;70.40;;;;;;12166990;27;20054;-72
2021/04/03 21:33:11;;;;;;;43.85;12.23;;;12.00;71.00;;;;;;12158492;27;20051;-72
2021/04/03 21:38:57;;;;;;;38.60;11.77;;;11.90;71.40;;;;;;12167149;27;20078;-72
2021/04/03 21:44:44;;;;;;;40.08;10.70;;;11.80;72.00;;;;;;12168340;27;20558;-72
2021/04/03 21:50:31;;;;;;;36.35;9.55;;;11.70;72.70;;;;;;12170334;27;20051;-72
2021/04/03 21:56:17;;;;;;;31.42;10.15;;;11.70;72.50;;;;;;12165186;27;20137;-72
2021/04/03 22:02:04;;;;;;;43.10;9.88;;;11.80;72.60;;;;;;12168083;27;20047;-72
2021/04/03 22:07:51;;;;;;;29.10;9.13;;;11.80;72.80;;;;;;12163939;27;20046;-72
2021/04/03 22:13:37;;;;;;;32.42;9.48;;;11.80;72.90;;;;;;12162593;27;20066;-72
2021/04/03 22:19:24;;;;;;;31.27;8.20;;;11.70;72.70;;;;;;12159561;27;20050;-73
2021/04/03 22:25:12;;;;;;;35.08;9.38;;;11.50;73.60;;;;;;12160132;27;20330;-72
2021/04/03 22:30:59;;;;;;;30.20;8.85;;;11.70;73.30;;;;;;12164140;27;20151;-73
2021/04/03 22:36:45;;;;;;;31.35;9.18;;;11.60;73.40;;;;;;12158203;27;20043;-74
2021/04/03 22:42:32;;;;;;;42.08;9.50;;;11.50;73.70;;;;;;12162788;27;20044;-72
2021/04/03 22:48:19;;;;;;;38.17;9.48;;;11.50;73.40;;;;;;12164628;27;20035;-73
2021/04/03 22:54:05;;;;;;;31.00;9.70;;;11.50;73.30;;;;;;12164484;27;20100;-74
2021/04/03 22:59:53;;;;;;;36.83;8.90;;;11.50;73.60;;;;;;12159665;27;20051;-74
2021/04/03 23:05:41;;;;;;;44.78;9.77;;;11.30;73.90;;;;;;12159703;27;20069;-73
2021/04/03 23:11:27;;;;;;;41.35;9.77;;;11.30;74.10;;;;;;12174288;27;20104;-74
2021/04/03 23:17:14;;;;;;;32.88;8.45;;;11.00;75.20;;;;;;12159806;27;20414;-73
2021/04/03 23:23:01;;;;;;;35.03;9.45;;;10.90;74.90;;;;;;12165382;27;20533;-73
2021/04/03 23:28:47;;;;;;;50.88;10.05;;;11.00;75.00;;;;;;12160803;27;20097;-73
2021/04/03 23:34:34;;;;;;;39.55;9.70;;;10.90;75.10;;;;;;12154444;27;20051;-73
2021/04/03 23:40:21;;;;;;;47.47;11.18;;;10.80;75.60;;;;;;12162099;27;20051;-73
2021/04/03 23:46:07;;;;;;;35.50;9.35;;;10.70;76.60;;;;;;12160027;27;20068;-73
2021/04/03 23:51:54;;;;;;;47.03;10.30;;;10.80;75.60;;;;;;12164095;27;20055;-74
2021/04/03 23:57:41;;;;;;;44.08;9.73;;;10.70;75.90;;;;;;12164560;27;20482;-72
